Time;durP1;ratioP1;P1;durP2;ratioP2;P2;SDS_P1;SDS_P2;PMS_P1;PMS_P2;Temp;Humidity;BMP_temperature;BMP_pressure;BME280_temperature;BME280_humidity;BME280_pressure;Samples;Min_cycle;Max_cycle;Signal;HPM_P1;HPM_P2
2021/11/12 00:03:20;;;;;;;140.65;49.17;;;;;;;7.90;100.00;102221.88;5005278;28;20037;-75
2021/11/12 00:13:58;;;;;;;118.72;44.13;;;;;;;7.86;100.00;102222.16;4989973;28;20041;-75
2021/11/12 00:16:27;;;;;;;112.30;42.78;;;;;;;7.85;100.00;102226.50;5006117;28;20053;-74
2021/11/12 00:18:53;;;;;;;115.22;43.70;;;;;;;7.85;100.00;102220.47;5031561;28;20064;-74
2021/11/12 00:21:20;;;;;;;116.65;44.45;;;;;;;7.85;100.00;102215.22;4995484;28;20056;-76
2021/11/12 00:23:46;;;;;;;109.00;41.70;;;;;;;7.86;100.00;102217.75;5011959;28;20557;-75
2021/11/12 00:26:12;;;;;;;109.05;43.08;;;;;;;7.86;100.00;102219.53;5018131;28;20033;-74
2021/11/12 00:28:48;;;;;;;120.20;44.53;;;;;;;7.86;100.00;102220.38;5010013;28;20780;-75
2021/11/12 00:31:28;;;;;;;125.53;46.25;;;;;;;7.87;100.00;102213.38;5027281;28;20624;-74
2021/11/12 00:39:46;;;;;;;119.82;42.97;;;;;;;7.87;100.00;102205.53;5001551;28;20111;-76
2021/11/12 00:41:49;;;;;;;107.85;41.55;;;;;;;7.90;100.00;102206.19;4992470;28;20042;-76
2021/11/12 00:44:30;;;;;;;106.35;41.30;;;;;;;7.87;100.00;102203.75;4999213;28;20047;-75
2021/11/12 00:49:28;;;;;;;111.72;42.83;;;;;;;7.88;100.00;102205.44;5025535;28;20034;-77
2021/11/12 00:51:57;;;;;;;112.97;43.92;;;;;;;7.89;100.00;102211.50;5006764;28;20139;-76
2021/11/12 00:54:23;;;;;;;107.57;42.90;;;;;;;7.89;100.00;102208.88;5010676;28;20033;-77
2021/11/12 00:56:51;;;;;;;113.57;44.72;;;;;;;7.85;100.00;102205.63;4998992;28;20502;-76
2021/11/12 00:59:18;;;;;;;115.32;45.03;;;;;;;7.86;100.00;102207.31;5015333;28;20037;-74
2021/11/12 01:01:45;;;;;;;106.55;41.55;;;;;;;7.85;100.00;102204.78;5008039;28;20117;-76
2021/11/12 01:04:20;;;;;;;107.95;43.33;;;;;;;7.86;100.00;102209.09;4997498;28;20049;-76
2021/11/12 01:06:46;;;;;;;104.18;42.75;;;;;;;7.86;100.00;102212.53;5020090;28;20037;-76
2021/11/12 01:09:15;;;;;;;106.10;43.60;;;;;;;7.83;100.00;102207.47;5011130;28;20037;-76
2021/11/12 01:11:44;;;;;;;119.28;44.50;;;;;;;7.80;100.00;102208.53;5026652;28;20040;-75
2021/11/12 01:14:12;;;;;;;115.63;44.45;;;;;;;7.78;100.00;102205.16;5017210;28;20025;-75
2021/11/12 01:16:38;;;;;;;106.63;42.80;;;;;;;7.77;100.00;102198.25;5010058;28;20046;-75
2021/11/12 01:19:06;;;;;;;102.18;41.35;;;;;;;7.76;100.00;102204.41;5030367;28;20399;-76
2021/11/12 01:21:32;;;;;;;94.07;40.20;;;;;;;7.75;100.00;102200.13;5010010;28;20038;-76
2021/11/12 01:23:58;;;;;;;93.75;39.20;;;;;;;7.74;100.00;102194.97;5017991;28;20792;-75
2021/11/12 01:26:26;;;;;;;105.15;41.47;;;;;;;7.74;100.00;102193.22;5010043;28;20037;-75
2021/11/12 01:28:52;;;;;;;105.75;41.20;;;;;;;7.76;100.00;102196.59;5013826;28;20113;-75
2021/11/12 01:31:28;;;;;;;101.03;40.75;;;;;;;7.73;100.00;102183.69;5008248;28;20044;-77
2021/11/12 01:33:57;;;;;;;100.38;40.58;;;;;;;7.75;100.00;102178.38;5026797;28;20033;-76
2021/11/12 01:36:32;;;;;;;99.93;40.08;;;;;;;7.73;100.00;102178.47;5009991;28;20029;-75
2021/11/12 01:39:01;;;;;;;101.05;40.72;;;;;;;7.71;100.00;102175.13;5003482;28;20029;-74
2021/11/12 01:41:28;;;;;;;96.72;38.65;;;;;;;7.74;100.00;102166.25;5008685;28;20084;-75
2021/11/12 01:43:56;;;;;;;94.43;38.50;;;;;;;7.73;100.00;102168.03;5004770;28;20040;-77
2021/11/12 01:46:28;;;;;;;93.88;37.00;;;;;;;7.68;100.00;102158.78;5022453;28;20029;-74
2021/11/12 02:01:19;;;;;;;94.90;38.55;;;;;;;7.57;100.00;102148.97;5012291;28;20033;-75
2021/11/12 02:03:45;;;;;;;104.60;39.88;;;;;;;7.55;100.00;102156.94;5011615;28;20037;-76
2021/11/12 02:06:18;;;;;;;109.00;40.95;;;;;;;7.57;100.00;102160.28;5022385;28;20033;-77
2021/11/12 02:08:45;;;;;;;112.10;42.45;;;;;;;7.57;100.00;102154.22;5019609;28;20079;-75
2021/11/12 02:11:11;;;;;;;121.05;43.38;;;;;;;7.56;100.00;102157.75;5014588;28;20090;-74
2021/11/12 02:13:36;;;;;;;122.57;44.10;;;;;;;7.53;100.00;102157.94;5026083;28;20055;-76
2021/11/12 02:16:05;;;;;;;106.97;40.67;;;;;;;7.52;100.00;102158.88;5007956;28;20050;-77
2021/11/12 02:18:35;;;;;;;112.40;42.33;;;;;;;7.55;100.00;102153.47;5019542;28;20045;-76
2021/11/12 02:23:38;;;;;;;102.75;40.35;;;;;;;7.53;100.00;102142.28;5024031;28;20045;-77
2021/11/12 02:26:07;;;;;;;114.18;42.95;;;;;;;7.52;100.00;102143.22;5019440;28;20679;-76
2021/11/12 02:28:39;;;;;;;119.28;44.45;;;;;;;7.50;100.00;102147.69;4993926;28;20498;-77
2021/11/12 02:31:04;;;;;;;114.72;43.72;;;;;;;7.51;100.00;102147.59;4980129;28;20034;-76
2021/11/12 02:33:33;;;;;;;104.28;42.10;;;;;;;7.54;100.00;102149.19;5005723;28;20106;-76
2021/11/12 02:36:08;;;;;;;120.63;45.13;;;;;;;7.50;100.00;102143.31;5022553;28;20030;-77
2021/11/12 02:38:38;;;;;;;120.13;44.38;;;;;;;7.46;100.00;102141.81;5004987;28;20037;-77
2021/11/12 02:41:05;;;;;;;134.13;48.50;;;;;;;7.54;100.00;102143.97;4990665;28;20033;-76
2021/11/12 02:43:35;;;;;;;123.32;46.80;;;;;;;7.54;100.00;102139.56;5001665;28;20045;-75
2021/11/12 02:46:03;;;;;;;122.80;45.88;;;;;;;7.50;100.00;102132.88;4992599;28;20071;-76
2021/11/12 02:48:34;;;;;;;134.15;47.13;;;;;;;7.47;100.00;102140.88;5010676;28;20037;-76
2021/11/12 02:51:00;;;;;;;144.98;49.60;;;;;;;7.44;100.00;102133.25;5021411;28;20036;-76
2021/11/12 02:53:26;;;;;;;139.85;49.78;;;;;;;7.44;100.00;102122.78;5021716;28;20037;-77
2021/11/12 02:55:52;;;;;;;141.77;50.45;;;;;;;7.44;100.00;102122.78;5026020;28;20418;-76
2021/11/12 02:58:19;;;;;;;156.93;50.17;;;;;;;7.43;100.00;102118.50;5008320;28;20033;-75
2021/11/12 03:00:46;;;;;;;149.98;50.90;;;;;;;7.44;100.00;102119.31;5025467;28;20056;-76
2021/11/12 03:03:15;;;;;;;146.32;49.22;;;;;;;7.40;100.00;102119.53;4992752;28;20645;-76
2021/11/12 03:05:41;;;;;;;145.38;49.72;;;;;;;7.40;100.00;102116.06;4992435;28;20046;-76
2021/11/12 03:08:07;;;;;;;137.60;49.00;;;;;;;7.39;100.00;102107.41;4995578;28;20091;-76
2021/11/12 03:10:33;;;;;;;141.48;48.67;;;;;;;7.39;100.00;102103.94;4992822;28;20116;-76
2021/11/12 03:12:59;;;;;;;143.13;49.70;;;;;;;7.36;100.00;102098.91;5028030;28;20037;-76
2021/11/12 03:15:24;;;;;;;125.85;49.30;;;;;;;7.39;100.00;102104.78;5007194;28;20036;-76
2021/11/12 03:17:53;;;;;;;132.50;49.15;;;;;;;7.35;100.00;102098.06;5012386;28;20045;-76
2021/11/12 03:20:19;;;;;;;136.27;49.60;;;;;;;7.34;100.00;102095.56;5024315;28;20064;-76
2021/11/12 03:23:01;;;;;;;145.00;49.47;;;;;;;7.35;100.00;102099.84;4992001;28;20050;-76
2021/11/12 04:03:28;;;;;;;132.27;46.42;;;;;;;7.12;100.00;102085.53;5012389;28;20041;-76
2021/11/12 04:06:13;;;;;;;135.50;49.97;;;;;;;7.15;100.00;102082.75;5011577;28;20033;-77
2021/11/12 04:17:24;;;;;;;133.65;49.22;;;;;;;7.20;100.00;102076.34;5029057;28;20314;-76
2021/11/12 05:11:09;;;;;;;120.03;46.78;;;;;;;7.08;100.00;102039.69;5023834;28;20033;-75
2021/11/12 05:44:16;;;;;;;126.38;43.22;;;;;;;6.88;100.00;102015.66;5024528;28;20446;-76
2021/11/12 05:57:09;;;;;;;135.27;41.58;;;;;;;6.89;100.00;102029.53;5020297;28;20034;-76
2021/11/12 05:59:35;;;;;;;124.75;39.42;;;;;;;6.78;100.00;102017.97;5005648;28;20475;-76
2021/11/12 06:02:00;;;;;;;115.25;39.05;;;;;;;6.81;100.00;102014.34;5010560;28;20061;-76
2021/11/12 06:04:26;;;;;;;132.50;40.63;;;;;;;6.74;100.00;102007.78;5005626;28;20643;-75
2021/11/12 06:06:52;;;;;;;120.82;38.53;;;;;;;6.72;100.00;102000.06;5011005;28;20069;-76
2021/11/12 06:09:18;;;;;;;126.88;39.88;;;;;;;6.69;100.00;102007.25;4989599;28;20115;-75
2021/11/12 06:11:44;;;;;;;120.35;39.45;;;;;;;6.70;100.00;101998.47;5009011;28;20038;-75
2021/11/12 06:14:10;;;;;;;112.03;38.60;;;;;;;6.75;100.00;101999.88;5012168;28;20376;-76
2021/11/12 06:16:36;;;;;;;123.88;39.47;;;;;;;6.70;100.00;101996.69;5006844;28;20030;-76
2021/11/12 06:19:03;;;;;;;140.43;38.63;;;;;;;6.66;100.00;101991.78;5023957;28;20062;-76
2021/11/12 06:21:29;;;;;;;116.90;37.95;;;;;;;6.69;100.00;101999.44;5022730;28;20410;-75
2021/11/12 06:23:56;;;;;;;113.80;37.45;;;;;;;6.70;100.00;101988.88;5012292;28;20038;-76
2021/11/12 06:26:22;;;;;;;117.70;38.20;;;;;;;6.69;100.00;101992.44;5013404;28;20041;-75
2021/11/12 06:28:49;;;;;;;131.63;38.67;;;;;;;6.65;100.00;101988.34;4993512;28;20458;-75
2021/11/12 06:31:19;;;;;;;113.25;37.47;;;;;;;6.66;100.00;101989.16;5021475;28;20048;-76
2021/11/12 06:33:45;;;;;;;112.45;36.35;;;;;;;6.67;100.00;101986.47;4998008;28;20087;-76
2021/11/12 06:36:10;;;;;;;121.65;33.72;;;;;;;6.66;100.00;101976.13;5008663;28;20034;-76
2021/11/12 06:38:37;;;;;;;101.30;32.72;;;;;;;6.63;100.00;101966.72;5019027;28;20849;-75
2021/11/12 06:41:08;;;;;;;96.80;32.03;;;;;;;6.62;100.00;101967.66;5020865;28;20119;-75
2021/11/12 06:43:42;;;;;;;101.25;32.83;;;;;;;6.62;100.00;101963.25;5030201;28;20041;-75
2021/11/12 06:51:57;;;;;;;95.68;31.83;;;;;;;6.67;100.00;101952.56;4989084;28;20042;-75
2021/11/12 06:54:24;;;;;;;103.50;32.22;;;;;;;6.68;100.00;101946.41;4973896;28;20046;-75
2021/11/12 06:56:49;;;;;;;100.05;30.63;;;;;;;6.65;100.00;101951.84;4986486;28;20045;-75
2021/11/12 06:59:15;;;;;;;93.78;29.00;;;;;;;6.69;100.00;101952.50;5028984;28;20376;-76
2021/11/12 07:01:41;;;;;;;93.90;30.60;;;;;;;6.74;100.00;101959.13;5009738;28;20034;-76
2021/11/12 07:04:07;;;;;;;97.70;29.70;;;;;;;6.72;100.00;101955.72;5013024;28;20029;-76
2021/11/12 07:06:35;;;;;;;86.20;27.05;;;;;;;6.78;100.00;101957.13;5030939;28;20025;-75
2021/11/12 07:09:00;;;;;;;90.35;25.63;;;;;;;6.75;100.00;101954.72;4985580;28;20038;-76
2021/11/12 07:11:26;;;;;;;86.65;25.98;;;;;;;6.76;100.00;101967.69;5018449;28;20713;-75
2021/11/12 07:13:51;;;;;;;92.00;27.92;;;;;;;6.75;100.00;101971.19;5021944;28;20570;-76
2021/11/12 07:16:17;;;;;;;89.90;27.13;;;;;;;6.79;100.00;101977.06;4980753;28;20041;-76
2021/11/12 07:18:42;;;;;;;95.13;29.02;;;;;;;6.82;100.00;101969.91;5005785;28;20060;-75
2021/11/12 07:21:08;;;;;;;92.60;26.88;;;;;;;6.84;100.00;101980.25;5016497;28;20108;-76
2021/11/12 07:23:33;;;;;;;91.25;26.75;;;;;;;6.82;100.00;101980.34;5028025;28;20509;-76
2021/11/12 07:25:59;;;;;;;78.55;23.58;;;;;;;6.82;100.00;101972.53;5025226;28;20025;-76
2021/11/12 07:28:26;;;;;;;65.70;20.92;;;;;;;6.89;100.00;101972.97;5022768;28;20034;-75
2021/11/12 07:30:53;;;;;;;69.45;21.15;;;;;;;6.89;100.00;101975.59;5029734;28;20037;-75
2021/11/12 07:33:20;;;;;;;66.13;19.70;;;;;;;6.84;100.00;101975.03;5021174;28;20037;-75
2021/11/12 07:35:52;;;;;;;64.07;20.20;;;;;;;6.91;100.00;101968.53;5009173;28;20437;-75
2021/11/12 07:38:25;;;;;;;65.28;20.08;;;;;;;6.86;100.00;101954.91;5020321;28;20056;-76
2021/11/12 07:48:32;;;;;;;79.80;22.25;;;;;;;6.92;100.00;101943.28;5013150;28;20037;-76
2021/11/12 07:50:58;;;;;;;67.38;20.33;;;;;;;7.00;100.00;101935.81;4996895;28;20041;-76
2021/11/12 07:53:25;;;;;;;80.75;21.85;;;;;;;6.98;100.00;101946.34;5030420;28;20095;-75
2021/11/12 07:55:53;;;;;;;63.33;19.88;;;;;;;6.95;100.00;101936.09;5029060;28;20108;-76
2021/11/12 07:58:20;;;;;;;66.55;18.90;;;;;;;6.96;100.00;101942.16;4995322;28;20044;-76
2021/11/12 08:00:46;;;;;;;62.95;20.02;;;;;;;6.97;100.00;101925.59;5018015;28;20029;-75
2021/11/12 08:03:14;;;;;;;64.00;19.05;;;;;;;6.96;100.00;101935.16;5028519;28;20032;-77
2021/11/12 08:05:42;;;;;;;68.75;20.88;;;;;;;6.96;100.00;101955.19;5028573;28;20026;-75
2021/11/12 08:08:10;;;;;;;79.03;20.60;;;;;;;6.93;100.00;101943.19;5011436;28;20087;-76
2021/11/12 08:10:46;;;;;;;72.57;21.02;;;;;;;6.94;100.00;101931.81;5026566;28;20040;-76
2021/11/12 08:13:18;;;;;;;76.85;20.83;;;;;;;6.98;100.00;101933.28;5017575;28;20041;-76
2021/11/12 08:16:18;;;;;;;68.13;18.98;;;;;;;6.99;100.00;101932.38;5015232;28;20124;-76
2021/11/12 08:21:05;;;;;;;60.58;18.30;;;;;;;7.02;100.00;101913.06;5016228;28;20040;-76
2021/11/12 08:23:46;;;;;;;67.20;19.05;;;;;;;6.99;100.00;101914.09;5007735;28;20049;-77
2021/11/12 08:34:37;;;;;;;67.82;18.23;;;;;;;7.01;100.00;101907.03;4950459;28;20060;-76
2021/11/12 08:41:56;;;;;;;64.95;18.25;;;;;;;7.12;100.00;101906.38;5028935;28;20029;-75
2021/11/12 08:47:06;;;;;;;69.93;19.92;;;;;;;7.18;100.00;101899.94;5024631;28;20079;-75
2021/11/12 08:49:35;;;;;;;66.80;18.83;;;;;;;7.19;100.00;101910.25;5020095;28;20068;-76
2021/11/12 08:52:03;;;;;;;75.53;20.55;;;;;;;7.20;100.00;101895.44;4992711;28;20165;-76
2021/11/12 08:54:38;;;;;;;69.93;20.45;;;;;;;7.22;100.00;101899.63;5017305;28;20037;-76
2021/11/12 08:57:09;;;;;;;79.30;20.75;;;;;;;7.25;100.00;101903.81;5011589;28;20505;-76
2021/11/12 08:59:39;;;;;;;70.10;19.70;;;;;;;7.25;100.00;101895.97;5015943;28;20044;-77
2021/11/12 09:02:07;;;;;;;77.00;21.52;;;;;;;7.27;100.00;101898.50;5024579;28;20033;-76
2021/11/12 09:04:33;;;;;;;69.50;20.88;;;;;;;7.31;100.00;101890.41;5021633;28;20049;-76
2021/11/12 09:06:59;;;;;;;66.85;19.85;;;;;;;7.30;100.00;101886.09;5024038;28;20045;-76
2021/11/12 09:09:25;;;;;;;65.35;20.08;;;;;;;7.40;100.00;101881.97;5017085;28;20034;-76
2021/11/12 09:11:51;;;;;;;52.72;17.65;;;;;;;7.46;100.00;101874.66;5019597;28;20026;-76
2021/11/12 09:14:20;;;;;;;42.13;15.88;;;;;;;7.51;100.00;101883.88;5005146;28;20041;-76
2021/11/12 09:16:48;;;;;;;33.80;14.15;;;;;;;7.53;100.00;101882.00;5025465;28;20583;-76
2021/11/12 09:19:14;;;;;;;31.13;12.65;;;;;;;7.54;100.00;101882.88;5007667;28;20030;-76
2021/11/12 09:21:44;;;;;;;29.65;12.48;;;;;;;7.50;100.00;101870.94;5021019;28;20091;-76
2021/11/12 09:24:10;;;;;;;30.17;12.50;;;;;;;7.52;100.00;101876.91;5010663;28;20072;-75
2021/11/12 09:26:36;;;;;;;26.67;11.88;;;;;;;7.55;100.00;101879.31;5011574;28;20057;-75
2021/11/12 09:29:10;;;;;;;31.13;13.18;;;;;;;7.59;100.00;101884.25;5010567;28;20438;-76
2021/11/12 09:31:39;;;;;;;35.45;13.48;;;;;;;7.60;100.00;101887.69;5010600;28;20057;-76
2021/11/12 09:34:10;;;;;;;33.13;13.52;;;;;;;7.62;100.00;101884.97;4981785;28;20041;-76
2021/11/12 09:36:36;;;;;;;29.35;13.23;;;;;;;7.62;100.00;101883.19;5023462;28;20029;-76
2021/11/12 09:39:02;;;;;;;25.70;11.93;;;;;;;7.60;100.00;101872.84;4994812;28;20063;-76
2021/11/12 09:41:29;;;;;;;23.65;11.98;;;;;;;7.69;100.00;101874.03;5014395;28;20586;-76
2021/11/12 09:43:54;;;;;;;24.15;11.27;;;;;;;7.69;100.00;101868.81;5030501;28;20494;-75
2021/11/12 09:46:20;;;;;;;24.30;12.63;;;;;;;7.63;100.00;101874.44;5004921;28;20063;-76
2021/11/12 09:48:45;;;;;;;24.38;11.20;;;;;;;7.60;100.00;101874.63;5005501;28;20075;-76
2021/11/12 09:51:12;;;;;;;27.08;12.13;;;;;;;7.56;100.00;101876.59;5027058;28;20056;-76
2021/11/12 09:53:38;;;;;;;21.27;11.20;;;;;;;7.60;100.00;101870.22;5010739;28;20120;-76
2021/11/12 09:56:07;;;;;;;19.27;11.30;;;;;;;7.72;100.00;101870.38;4994061;28;20053;-76
2021/11/12 09:58:34;;;;;;;21.38;11.65;;;;;;;7.69;100.00;101862.75;4991503;28;20116;-75
2021/11/12 10:01:00;;;;;;;17.95;10.20;;;;;;;7.77;100.00;101860.47;5028102;28;20124;-76
2021/11/12 10:03:33;;;;;;;14.73;9.60;;;;;;;7.86;100.00;101853.81;5013384;28;20085;-76
2021/11/12 10:06:00;;;;;;;;;;;;;;;7.90;100.00;101848.28;5007488;28;20037;-76
2021/11/12 10:08:37;;;;;;;16.75;10.15;;;;;;;8.02;100.00;101840.56;5000225;28;19917;-76
2021/11/12 10:11:09;;;;;;;14.68;9.38;;;;;;;8.11;100.00;101843.38;5027338;28;20037;-76
2021/11/12 10:13:38;;;;;;;14.07;9.40;;;;;;;8.16;100.00;101837.84;5020442;28;20030;-75
2021/11/12 10:19:05;;;;;;;;;;;;;;;8.19;100.00;101843.72;4994239;28;20045;-77
2021/11/12 10:21:47;;;;;;;16.27;9.35;;;;;;;8.19;100.00;101846.34;5009700;28;20464;-76
2021/11/12 10:24:17;;;;;;;14.95;9.15;;;;;;;8.17;100.00;101840.38;5002812;28;20045;-75
2021/11/12 10:26:50;;;;;;;15.05;10.18;;;;;;;8.22;100.00;101837.44;5022229;28;20061;-77
2021/11/12 10:29:26;;;;;;;17.80;10.73;;;;;;;8.21;100.00;101838.38;5011992;28;20095;-76
2021/11/12 10:31:55;;;;;;;16.63;10.60;;;;;;;8.21;100.00;101834.91;5013885;28;20029;-76
2021/11/12 10:34:31;;;;;;;16.13;10.48;;;;;;;8.22;100.00;101828.75;4993724;28;20040;-77
2021/11/12 10:36:56;;;;;;;16.73;10.60;;;;;;;8.29;100.00;101835.25;5010385;28;20410;-76
2021/11/12 10:39:26;;;;;;;17.85;11.10;;;;;;;8.33;100.00;101821.03;5007220;28;20464;-75
2021/11/12 10:41:52;;;;;;;16.27;10.95;;;;;;;8.37;100.00;101820.69;5005883;28;20055;-75
2021/11/12 10:44:18;;;;;;;19.88;12.60;;;;;;;8.39;100.00;101823.22;5006512;28;20069;-77
2021/11/12 10:46:47;;;;;;;20.02;12.10;;;;;;;8.42;100.00;101814.34;5024758;28;20075;-74
2021/11/12 10:49:31;;;;;;;22.25;13.23;;;;;;;8.46;100.00;101819.25;4993105;28;20453;-76
2021/11/12 10:52:06;;;;;;;20.63;12.70;;;;;;;8.55;100.00;101817.78;5019921;28;20063;-76
2021/11/12 10:55:01;;;;;;;20.23;12.90;;;;;;;8.54;100.00;101827.41;5005787;28;20088;-75
2021/11/12 10:57:38;;;;;;;23.58;13.23;;;;;;;8.58;100.00;101812.34;5024536;28;20038;-76
2021/11/12 11:00:08;;;;;;;21.65;12.75;;;;;;;8.63;100.00;101815.47;4993784;28;20180;-75
2021/11/12 11:02:42;;;;;;;22.58;13.30;;;;;;;8.67;100.00;101806.47;5024321;28;20766;-76
2021/11/12 11:05:15;;;;;;;19.83;11.95;;;;;;;8.75;100.00;101813.78;4995433;28;20041;-75
2021/11/12 11:07:40;;;;;;;;;;;;;;;8.78;100.00;101800.47;5020985;28;20040;-75
2021/11/12 11:10:20;;;;;;;20.13;11.68;;;;;;;8.84;100.00;101783.50;5002580;28;19917;-76
2021/11/12 11:12:45;;;;;;;20.30;11.90;;;;;;;8.91;100.00;101790.81;5024029;28;20033;-76
2021/11/12 11:15:33;;;;;;;17.60;11.25;;;;;;;8.95;100.00;101789.63;5009883;28;20110;-75
2021/11/12 11:18:24;;;;;;;18.00;11.13;;;;;;;8.93;100.00;101790.72;4986851;28;20461;-76
2021/11/12 11:21:11;;;;;;;18.65;11.45;;;;;;;8.92;100.00;101787.22;5002768;28;20148;-76
2021/11/12 11:23:42;;;;;;;17.33;10.90;;;;;;;8.87;100.00;101778.03;5021322;28;20590;-76
2021/11/12 11:26:07;;;;;;;21.80;12.35;;;;;;;8.82;100.00;101767.09;4994514;28;20046;-74
2021/11/12 11:28:35;;;;;;;21.42;11.25;;;;;;;8.76;100.00;101761.34;5021586;28;20045;-75
2021/11/12 11:31:08;;;;;;;20.35;12.20;;;;;;;8.70;100.00;101758.31;5001212;28;20029;-76
2021/11/12 11:33:36;;;;;;;18.83;12.07;;;;;;;8.64;100.00;101761.38;4988000;28;20052;-75
2021/11/12 11:36:03;;;;;;;22.20;13.40;;;;;;;8.64;100.00;101758.75;5013252;28;20037;-75
2021/11/12 11:38:31;;;;;;;20.10;12.07;;;;;;;8.63;100.00;101757.94;5011431;28;20113;-77
2021/11/12 11:40:58;;;;;;;19.52;11.70;;;;;;;8.63;100.00;101754.50;5002108;28;20372;-75
2021/11/12 11:43:26;;;;;;;22.00;12.20;;;;;;;8.61;100.00;101758.97;5030452;28;20442;-75
2021/11/12 11:45:54;;;;;;;19.73;11.63;;;;;;;8.67;100.00;101745.47;5026629;28;20116;-75
2021/11/12 11:48:20;;;;;;;21.40;12.18;;;;;;;8.67;100.00;101737.63;5013827;28;20455;-76
2021/11/12 11:50:56;;;;;;;19.23;11.40;;;;;;;8.71;100.00;101739.91;5012301;28;20120;-76
2021/11/12 11:53:38;;;;;;;22.20;12.48;;;;;;;8.70;100.00;101733.03;5027581;28;20033;-75
2021/11/12 11:56:22;;;;;;;25.13;11.80;;;;;;;8.70;100.00;101727.78;5017322;28;20041;-76
2021/11/12 11:58:55;;;;;;;20.13;11.32;;;;;;;8.69;100.00;101727.91;5007572;28;20457;-76
2021/11/12 12:01:21;;;;;;;18.33;10.68;;;;;;;8.70;100.00;101721.69;5009011;28;20033;-76
2021/11/12 12:03:48;;;;;;;16.08;10.07;;;;;;;8.68;100.00;101713.13;5013093;28;20381;-76
2021/11/12 12:06:19;;;;;;;17.67;10.00;;;;;;;8.67;100.00;101712.31;5012268;28;20048;-75
2021/11/12 12:09:06;;;;;;;19.38;10.20;;;;;;;8.69;100.00;101704.34;5019490;28;20047;-76
2021/11/12 12:12:08;;;;;;;22.92;10.23;;;;;;;8.69;100.00;101707.78;5024939;28;20510;-75
2021/11/12 12:14:36;;;;;;;17.45;10.35;;;;;;;8.74;100.00;101699.63;4986646;28;20074;-76
2021/11/12 12:17:34;;;;;;;15.05;9.43;;;;;;;8.69;100.00;101692.09;5006315;28;20045;-75
2021/11/12 12:20:31;;;;;;;15.63;9.55;;;;;;;8.75;100.00;101686.41;5006997;28;20045;-76
2021/11/12 12:37:35;;;;;;;17.60;9.63;;;;;;;8.84;100.00;101657.94;4992897;28;20033;-76
2021/11/12 13:25:35;;;;;;;16.05;9.10;;;;;;;8.79;100.00;101597.25;5029280;28;20115;-75
2021/11/12 13:28:21;;;;;;;15.15;9.48;;;;;;;8.72;100.00;101591.63;4996897;28;20684;-76
2021/11/12 13:30:53;;;;;;;12.75;8.75;;;;;;;8.70;100.00;101585.69;5026345;28;20072;-77
2021/11/12 13:33:39;;;;;;;11.63;7.72;;;;;;;8.65;100.00;101583.44;4993650;28;20041;-76
2021/11/12 13:36:37;;;;;;;8.35;5.20;;;;;;;8.54;100.00;101576.38;4988852;28;20079;-76
2021/11/12 13:39:07;;;;;;;6.30;4.20;;;;;;;8.53;100.00;101573.84;5024525;28;20116;-75
2021/11/12 13:41:42;;;;;;;6.72;4.00;;;;;;;8.47;100.00;101556.84;4993660;28;20034;-76
2021/11/12 13:44:09;;;;;;;7.03;3.58;;;;;;;8.43;100.00;101570.25;5027141;28;20115;-76
2021/11/12 13:46:43;;;;;;;7.03;3.97;;;;;;;8.41;100.00;101566.91;5001061;28;20047;-75
2021/11/12 13:49:08;;;;;;;6.25;3.63;;;;;;;8.47;100.00;101566.47;5025560;28;20506;-76
2021/11/12 13:51:34;;;;;;;6.38;4.03;;;;;;;8.39;100.00;101560.00;5003759;28;20044;-75
2021/11/12 13:54:04;;;;;;;6.00;3.92;;;;;;;8.36;100.00;101554.16;5017618;28;20029;-75
2021/11/12 13:56:34;;;;;;;7.20;4.05;;;;;;;8.25;100.00;101551.47;5023991;28;20391;-76
2021/11/12 13:59:10;;;;;;;7.80;4.57;;;;;;;8.18;100.00;101559.78;5003330;28;20025;-75
2021/11/12 14:01:37;;;;;;;6.65;4.15;;;;;;;8.18;100.00;101538.88;5018336;28;20033;-76
2021/11/12 14:04:19;;;;;;;6.47;4.45;;;;;;;8.20;100.00;101544.00;4989745;28;20072;-75
2021/11/12 14:06:47;;;;;;;7.88;4.45;;;;;;;8.15;100.00;101539.06;5019314;28;20030;-76
2021/11/12 14:09:20;;;;;;;6.70;4.47;;;;;;;8.18;100.00;101541.47;5008427;28;20033;-75
2021/11/12 14:11:59;;;;;;;8.57;4.93;;;;;;;8.16;100.00;101548.59;5008561;28;20040;-77
2021/11/12 14:14:25;;;;;;;8.88;5.05;;;;;;;8.06;100.00;101545.00;5010805;28;20029;-75
2021/11/12 14:16:52;;;;;;;7.57;5.32;;;;;;;7.94;100.00;101551.09;5008891;28;20540;-76
2021/11/12 14:19:38;;;;;;;10.27;5.88;;;;;;;7.95;100.00;101537.91;5030693;28;20044;-76
2021/11/12 14:22:14;;;;;;;10.48;5.93;;;;;;;7.94;100.00;101546.69;5015086;28;20434;-76
2021/11/12 14:24:57;;;;;;;11.73;6.30;;;;;;;7.97;100.00;101540.44;5000292;28;20065;-77
2021/11/12 14:27:34;;;;;;;10.80;7.00;;;;;;;7.93;100.00;101533.72;5004890;28;21117;-77
2021/11/12 14:30:17;;;;;;;9.27;7.03;;;;;;;7.95;100.00;101521.41;5024588;28;20647;-76
2021/11/12 14:35:22;;;;;;;13.55;8.23;;;;;;;7.95;100.00;101513.59;5004311;28;19971;-75
2021/11/12 14:46:54;;;;;;;9.50;6.20;;;;;;;7.88;100.00;101505.34;5023614;28;20490;-76
2021/11/12 14:52:03;;;;;;;12.13;7.72;;;;;;;7.86;100.00;101509.00;5024956;28;20045;-76
2021/11/12 14:54:33;;;;;;;12.35;8.43;;;;;;;7.92;100.00;101492.91;5017251;28;20112;-75
2021/11/12 14:57:00;;;;;;;12.20;8.13;;;;;;;7.80;100.00;101487.59;5004349;28;20467;-75
2021/11/12 14:59:26;;;;;;;10.98;8.20;;;;;;;7.73;100.00;101493.38;5009197;28;20046;-75
2021/11/12 15:01:52;;;;;;;16.45;9.13;;;;;;;7.71;100.00;101488.25;5011304;28;20037;-76
2021/11/12 15:04:18;;;;;;;12.98;8.57;;;;;;;7.72;100.00;101491.69;4991490;28;20494;-76
2021/11/12 15:06:44;;;;;;;11.13;7.80;;;;;;;7.68;100.00;101479.81;5001232;28;20063;-74
2021/11/12 15:09:24;;;;;;;12.32;8.52;;;;;;;7.70;100.00;101468.31;4990529;28;20048;-76
2021/11/12 15:11:51;;;;;;;13.15;8.70;;;;;;;7.65;100.00;101478.28;5025168;28;20712;-76
2021/11/12 15:14:25;;;;;;;11.75;8.13;;;;;;;7.63;100.00;101469.72;4991840;28;20049;-74
2021/11/12 15:16:51;;;;;;;13.93;8.88;;;;;;;7.56;100.00;101465.88;5009098;28;20475;-74
2021/11/12 15:19:19;;;;;;;11.45;8.32;;;;;;;7.51;100.00;101475.78;5014163;28;20065;-75
2021/11/12 15:24:35;;;;;;;15.95;9.05;;;;;;;7.57;100.00;101475.34;5010563;28;20067;-76
2021/11/12 15:27:52;;;;;;;13.18;9.10;;;;;;;7.52;100.00;101482.69;5014136;28;20065;-75
2021/11/12 15:30:02;;;;;;;12.85;9.00;;;;;;;7.54;100.00;101478.19;5023146;28;20056;-75
2021/11/12 15:32:32;;;;;;;12.50;8.93;;;;;;;7.46;100.00;101465.69;4995435;28;20048;-74
2021/11/12 15:35:21;;;;;;;15.25;9.40;;;;;;;7.39;100.00;101459.22;5013757;28;20037;-76
2021/11/12 15:40:22;;;;;;;13.23;10.27;;;;;;;7.36;100.00;101447.22;5010683;28;20065;-75
2021/11/12 15:42:59;;;;;;;12.75;10.13;;;;;;;7.38;100.00;101440.13;5010786;28;20080;-76
2021/11/12 15:45:36;;;;;;;13.82;10.65;;;;;;;7.35;100.00;101448.16;4991780;28;20403;-74
2021/11/12 15:48:14;;;;;;;17.35;11.52;;;;;;;7.26;100.00;101448.81;5024174;28;20037;-76
2021/11/12 16:06:50;;;;;;;21.17;13.85;;;;;;;6.98;100.00;101406.38;5022014;28;20033;-75
2021/11/12 16:09:24;;;;;;;18.27;13.48;;;;;;;6.85;100.00;101399.53;5025783;28;20041;-77
2021/11/12 16:18:04;;;;;;;19.90;14.45;;;;;;;6.66;100.00;101379.09;5018143;28;20388;-75
2021/11/12 16:27:42;;;;;;;22.83;15.90;;;;;;;6.50;100.00;101374.94;5008197;28;20380;-74
2021/11/12 16:30:09;;;;;;;26.38;16.73;;;;;;;6.40;100.00;101372.13;5009795;28;20030;-75
2021/11/12 16:32:44;;;;;;;26.45;17.75;;;;;;;6.42;100.00;101372.88;4994325;28;20045;-76
2021/11/12 16:35:15;;;;;;;25.20;16.88;;;;;;;6.40;100.00;101373.88;5007586;28;20128;-74
2021/11/12 16:37:40;;;;;;;28.25;16.67;;;;;;;6.42;100.00;101379.81;5021105;28;20041;-75
2021/11/12 16:40:20;;;;;;;26.70;17.65;;;;;;;6.39;100.00;101380.88;5006731;28;20037;-75